Wainwright, OK

4:03 AM CDT on September 21, 2014 (GMT -0500)
Davis | Change Station
CLOSE
Current Station
Airport
Location: Muskogee,
Elevation: 610 ft
Nearby Weather Stations

Elev 610 ft 35.66 °N, 95.37 °W | Updated 10 minutes ago

Clear
Clear
68 °F
Feels Like 68 °F
N
6
Wind Variable Wind from South

Today
High -- | Low -- °F
--% Chance of Precip.
Yesterday
High -- | Low -- °F
Precip. -- in
7:09 AM 7:20 PM
Waning Crescent, 8% visible
Pressure 30.01 in
Visibility 5.0 miles
Clouds Scattered Clouds 9000 ft
Dew Point 66 °F
Humidity 93%
Rainfall 0.00 in
Snow Depth Not available.
UV 0 out of 12
Pollen 9.50 out of 12
Air Quality Not available.
Flu Activity Not available.
METAR KMKO 210853Z AUTO 17005KT 5SM BR SCT090 20/19 A3003 RMK AO2 SLP162 T02000189 50001

More Conditions Fewer Conditions

Pressure 30.01 in
Visibility 5.0 miles
Clouds Scattered Clouds 9000 ft
Dew Point 66 °F
Humidity 93%
Rainfall 0.00 in
Snow Depth Not available.
UV 0 out of 12
Pollen 9.50 out of 12
Air Quality Not available.
Flu Activity Not available.
METAR KMKO 210853Z AUTO 17005KT 5SM BR SCT090 20/19 A3003 RMK AO2 SLP162 T02000189 50001

More Conditions Fewer Conditions

10-Day Weather Forecast

Almanac

Astronomy

Sep. 21, 2014 Rise Set
Actual Time 7:09 AM CDT 7:20 PM CDT
Civil Twilight 6:44 AM CDT 7:45 PM CDT
Nautical Twilight 6:14 AM CDT 8:15 PM CDT
Astronomical Twilight 5:44 AM CDT 8:45 PM CDT
Moon 4:47 AM CDT 5:54 PM CDT
Length of Visible Light 13h 01m
Length of Day
12h 11m
Tomorrow will be 2m 14s shorter.
Waning Crescent, 8% of the Moon is Illuminated
Today
Waning Crescent
Sep 24
New
Oct 1
First Quarter
Oct 8
Full
Oct 15
Last Quarter

Today's Extremes

State Highs State Lows

Community

WunderPhotos

Upload Photos

1,755,100 photos uploaded!

Nearby

Snow Depth

Station Depth Elevation
No new snow has been reported.

Earthquake Activity

City Distance Mag. Time & Date
Luther, Oklahoma 86 miles 2.7 4:47 PM CDT
2014-09-19
Guthrie, Oklahoma 104 miles 3.6 12:23 PM CDT
2014-09-19
Jones, Oklahoma 96 miles 2.8 1:13 AM CDT
2014-09-19
Perry, Oklahoma 102 miles 3.3 12:08 AM CDT
2014-09-19
Minimum magnitude displayed is 2.5.

Coastal Water Temperatures

Place Temperature
No Stations Reporting

Nearby Weather Stations